Time,TemperatureF,DewpointF,PressureIn,WindDirection,WindDirectionDegrees,WindSpeedMPH,WindSpeedGustMPH,Humidity,HourlyPrecipIn,Conditions,Clouds,dailyrainin,SoftwareType,DateUTC
2013-03-07 00:12:00,26.0,-99.9,30.25,NW,307,13.0,16.0,-999,-99.99,,,-99.99,,2013-03-07 05:12:00,
2013-03-07 00:42:00,26.0,-99.9,30.25,NW,307,13.0,17.0,-999,-99.99,,,-99.99,,2013-03-07 05:42:00,
2013-03-07 01:42:00,26.0,-99.9,30.24,WNW,302,14.0,21.0,-999,-99.99,,,-99.99,,2013-03-07 06:42:00,
2013-03-07 02:11:00,25.0,-99.9,30.25,NW,305,12.0,18.0,-999,-99.99,,,-99.99,,2013-03-07 07:11:00,
2013-03-07 02:43:00,25.0,-99.9,30.25,NW,308,15.0,19.0,-999,-99.99,,,-99.99,,2013-03-07 07:43:00,
2013-03-07 03:45:00,24.0,-99.9,30.26,WNW,302,13.0,17.0,-999,-99.99,,,-99.99,,2013-03-07 08:45:00,
2013-03-07 04:14:00,24.0,-99.9,30.27,WNW,302,12.0,18.0,-999,-99.99,,,-99.99,,2013-03-07 09:14:00,
2013-03-07 04:43:00,24.0,-99.9,30.27,NW,308,13.0,17.0,-999,-99.99,,,-99.99,,2013-03-07 09:43:00,
2013-03-07 05:14:00,24.0,-99.9,30.27,NW,311,9.0,12.0,-999,-99.99,,,-99.99,,2013-03-07 10:14:00,
2013-03-07 05:43:00,24.0,-99.9,30.27,NW,315,9.0,16.0,-999,-99.99,,,-99.99,,2013-03-07 10:43:00,
2013-03-07 06:44:00,24.0,-99.9,30.28,NW,314,10.0,11.0,-999,-99.99,,,-99.99,,2013-03-07 11:44:00,
2013-03-07 07:13:00,24.0,-99.9,30.29,NW,310,9.0,12.0,-999,-99.99,,,-99.99,,2013-03-07 12:13:00,
2013-03-07 07:43:00,25.0,-99.9,30.29,WNW,284,11.0,12.0,-999,-99.99,,,-99.99,,2013-03-07 12:43:00,
2013-03-07 08:43:00,25.0,-99.9,30.32,WNW,292,9.0,10.0,-999,-99.99,,,-99.99,,2013-03-07 13:43:00,
2013-03-07 09:12:00,26.0,-99.9,30.32,WNW,291,11.0,14.0,-999,-99.99,,,-99.99,,2013-03-07 14:12:00,
2013-03-07 10:13:00,27.0,-99.9,30.33,WNW,299,13.0,15.0,-999,-99.99,,,-99.99,,2013-03-07 15:13:00,
2013-03-07 10:43:00,28.0,-99.9,30.33,WNW,288,11.0,16.0,-999,-99.99,,,-99.99,,2013-03-07 15:43:00,
2013-03-07 11:13:00,28.0,-99.9,30.34,WNW,299,17.0,21.0,-999,-99.99,,,-99.99,,2013-03-07 16:13:00,
2013-03-07 11:43:00,28.0,-99.9,30.34,WNW,303,16.0,21.0,-999,-99.99,,,-99.99,,2013-03-07 16:43:00,
2013-03-07 12:13:00,28.0,-99.9,30.34,NW,316,15.0,22.0,-999,-99.99,,,-99.99,,2013-03-07 17:13:00,
2013-03-07 13:13:00,28.0,-99.9,30.35,WNW,295,19.0,22.0,-999,-99.99,,,-99.99,,2013-03-07 18:13:00,
2013-03-07 13:43:00,28.0,-99.9,30.35,WNW,303,15.0,21.0,-999,-99.99,,,-99.99,,2013-03-07 18:43:00,
2013-03-07 14:12:00,28.0,-99.9,30.35,WNW,292,20.0,25.0,-999,-99.99,,,-99.99,,2013-03-07 19:12:00,
2013-03-07 15:14:00,29.0,-99.9,30.35,WNW,301,13.0,20.0,-999,-99.99,,,-99.99,,2013-03-07 20:14:00,
2013-03-07 15:43:00,30.0,-99.9,30.35,WNW,293,15.0,17.0,-999,-99.99,,,-99.99,,2013-03-07 20:43:00,
2013-03-07 16:43:00,30.0,-99.9,30.36,WNW,284,13.0,17.0,-999,-99.99,,,-99.99,,2013-03-07 21:43:00,
2013-03-07 17:12:00,30.0,-99.9,30.37,WNW,289,15.0,19.0,-999,-99.99,,,-99.99,,2013-03-07 22:12:00,
2013-03-07 17:44:00,29.0,-99.9,30.38,WNW,292,16.0,21.0,-999,-99.99,,,-99.99,,2013-03-07 22:44:00,
2013-03-07 18:13:00,29.0,-99.9,30.38,WNW,300,15.0,21.0,-999,-99.99,,,-99.99,,2013-03-07 23:13:00,
2013-03-07 18:44:00,28.0,-99.9,30.39,WNW,298,13.0,19.0,-999,-99.99,,,-99.99,,2013-03-07 23:44:00,
2013-03-07 19:13:00,28.0,-99.9,30.40,NW,317,7.0,10.0,-999,-99.99,,,-99.99,,2013-03-08 00:13:00,
2013-03-07 19:44:00,28.0,-99.9,30.40,NW,318,7.0,9.0,-999,-99.99,,,-99.99,,2013-03-08 00:44:00,
2013-03-07 20:12:00,28.0,-99.9,30.41,NW,305,7.0,11.0,-999,-99.99,,,-99.99,,2013-03-08 01:12:00,
2013-03-07 21:12:00,26.0,-99.9,30.41,NW,319,6.0,9.0,-999,-99.99,,,-99.99,,2013-03-08 02:12:00,
2013-03-07 21:42:00,26.0,-99.9,30.42,NW,314,6.0,9.0,-999,-99.99,,,-99.99,,2013-03-08 02:42:00,
2013-03-07 22:12:00,26.0,-99.9,30.42,NNW,335,7.0,8.0,-999,-99.99,,,-99.99,,2013-03-08 03:12:00,
2013-03-07 22:43:00,26.0,-99.9,30.42,NNW,327,7.0,9.0,-999,-99.99,,,-99.99,,2013-03-08 03:43:00,
2013-03-07 23:12:00,26.0,-99.9,30.42,NW,322,6.0,10.0,-999,-99.99,,,-99.99,,2013-03-08 04:12:00,
2013-03-07 23:42:00,27.0,-99.9,30.42,NNW,336,6.0,9.0,-999,-99.99,,,-99.99,,2013-03-08 04:42:00,